Time;durP1;ratioP1;P1;durP2;ratioP2;P2;SDS_P1;SDS_P2;PMS_P1;PMS_P2;Temp;Humidity;BMP_temperature;BMP_pressure;BME280_temperature;BME280_humidity;BME280_pressure;Samples;Min_cycle;Max_cycle;Signal;HPM_P1;HPM_P2
2021/06/01 00:01:36;;;;;;;5.93;3.50;;;10.60;99.90;;;;;;6180644;23;20500;-91
2021/06/01 00:04:02;;;;;;;4.10;3.80;;;10.60;99.90;;;;;;6175544;23;20619;-91
2021/06/01 00:06:28;;;;;;;3.87;3.57;;;10.50;99.90;;;;;;6176025;23;20400;-91
2021/06/01 00:08:54;;;;;;;3.93;3.63;;;10.40;99.90;;;;;;6175604;23;20927;-91
2021/06/01 00:11:20;;;;;;;5.70;3.90;;;10.40;99.90;;;;;;6176781;23;20610;-91
2021/06/01 00:13:45;;;;;;;4.40;3.80;;;10.20;99.90;;;;;;6176178;23;20160;-91
2021/06/01 00:16:13;;;;;;;4.60;3.60;;;10.20;99.90;;;;;;6175707;23;20530;-91
2021/06/01 00:18:40;;;;;;;4.50;3.70;;;10.10;99.90;;;;;;6176141;23;20624;-91
2021/06/01 00:21:06;;;;;;;4.87;4.00;;;10.10;99.90;;;;;;6176091;23;20402;-91
2021/06/01 00:23:42;;;;;;;4.53;4.13;;;10.10;99.90;;;;;;6175785;23;21801;-90
2021/06/01 00:26:11;;;;;;;3.87;3.53;;;10.10;99.90;;;;;;6177944;23;20665;-91
2021/06/01 00:28:39;;;;;;;4.33;4.00;;;10.20;99.90;;;;;;6176324;23;20391;-90
2021/06/01 00:31:05;;;;;;;3.93;3.67;;;10.30;99.90;;;;;;6175431;23;20439;-91
2021/06/01 00:33:32;;;;;;;4.83;4.43;;;10.30;99.90;;;;;;6175956;23;21179;-90
2021/06/01 00:35:58;;;;;;;4.33;4.00;;;10.10;99.90;;;;;;6175230;23;20537;-90
2021/06/01 00:38:24;;;;;;;4.70;4.30;;;9.80;99.90;;;;;;6176291;23;20433;-90
2021/06/01 00:40:49;;;;;;;3.63;3.33;;;9.80;99.90;;;;;;6175457;23;20385;-90
2021/06/01 00:43:15;;;;;;;4.33;3.93;;;9.80;99.90;;;;;;6175845;23;20531;-90
2021/06/01 00:45:41;;;;;;;4.30;3.90;;;9.60;99.90;;;;;;6174741;23;20162;-91
2021/06/01 00:48:09;;;;;;;4.77;4.27;;;9.60;99.90;;;;;;6175554;23;20162;-90
2021/06/01 00:50:35;;;;;;;4.37;4.00;;;9.60;99.90;;;;;;6176190;23;20163;-91
2021/06/01 00:53:02;;;;;;;5.07;4.17;;;9.60;99.90;;;;;;6176273;23;20385;-90
2021/06/01 00:55:28;;;;;;;4.47;4.17;;;9.70;99.90;;;;;;6175287;23;20480;-90
2021/06/01 00:57:56;;;;;;;4.30;3.90;;;9.60;99.90;;;;;;6175755;23;20697;-91
2021/06/01 01:02:55;;;;;;;4.63;4.20;;;9.60;99.90;;;;;;6179135;23;20543;-91
2021/06/01 01:05:25;;;;;;;4.10;3.80;;;9.60;99.90;;;;;;6180628;23;20735;-90
2021/06/01 01:08:05;;;;;;;4.20;3.80;;;9.70;99.90;;;;;;6181330;23;20454;-90
2021/06/01 01:10:33;;;;;;;4.80;3.90;;;9.70;99.90;;;;;;6180603;23;20462;-91
2021/06/01 01:13:01;;;;;;;4.13;3.83;;;9.60;99.90;;;;;;6180608;23;20410;-91
2021/06/01 01:15:33;;;;;;;4.83;4.40;;;9.50;99.90;;;;;;6180960;23;20450;-91
2021/06/01 01:18:04;;;;;;;4.93;4.43;;;9.50;99.90;;;;;;6183153;23;20897;-90
2021/06/01 01:20:49;;;;;;;4.23;3.83;;;9.50;99.90;;;;;;6182922;23;20468;-91
2021/06/01 01:23:18;;;;;;;4.30;3.90;;;9.50;99.90;;;;;;6180838;23;20393;-91
2021/06/01 01:26:03;;;;;;;4.37;4.07;;;9.60;99.90;;;;;;6180489;23;20412;-90
2021/06/01 01:28:40;;;;;;;4.80;4.40;;;9.40;99.90;;;;;;6180663;23;20388;-91
2021/06/01 01:31:20;;;;;;;4.50;4.10;;;9.30;99.90;;;;;;6179921;23;20922;-92
2021/06/01 01:33:47;;;;;;;4.57;4.27;;;9.20;99.90;;;;;;6181484;23;20394;-91
2021/06/01 01:36:15;;;;;;;3.63;3.33;;;9.30;99.90;;;;;;6182062;23;20436;-90
2021/06/01 01:38:42;;;;;;;4.47;4.17;;;9.40;99.90;;;;;;6182245;23;20401;-90
2021/06/01 01:41:16;;;;;;;5.60;4.53;;;9.50;99.90;;;;;;6182521;23;20907;-91
2021/06/01 01:43:43;;;;;;;4.93;4.53;;;9.40;99.90;;;;;;6182516;23;20475;-91
2021/06/01 01:46:23;;;;;;;4.57;4.10;;;9.50;99.90;;;;;;6179674;23;20396;-91
2021/06/01 01:49:02;;;;;;;4.27;3.87;;;9.50;99.90;;;;;;6182511;23;20468;-90
2021/06/01 01:51:40;;;;;;;4.90;4.40;;;9.40;99.90;;;;;;6181826;23;20404;-90
2021/06/01 01:54:17;;;;;;;5.33;4.93;;;9.30;99.90;;;;;;6181971;23;20388;-91
2021/06/01 01:56:51;;;;;;;4.10;3.80;;;9.10;99.90;;;;;;6182915;23;20468;-91
2021/06/01 01:59:20;;;;;;;4.63;4.23;;;9.00;99.90;;;;;;6182181;23;20902;-90
2021/06/01 02:01:50;;;;;;;4.80;4.40;;;9.00;99.90;;;;;;6182226;23;20411;-91
2021/06/01 02:04:23;;;;;;;5.33;4.40;;;8.80;99.90;;;;;;6176623;23;20483;-90
2021/06/01 02:06:49;;;;;;;4.83;4.40;;;8.70;99.90;;;;;;6179339;23;20395;-92
2021/06/01 02:09:15;;;;;;;5.97;5.47;;;8.60;99.90;;;;;;6173202;23;20733;-90
2021/06/01 02:11:41;;;;;;;5.40;4.90;;;8.60;99.90;;;;;;6175169;23;20173;-91
2021/06/01 02:14:08;;;;;;;5.00;4.50;;;8.70;99.90;;;;;;6176476;23;20415;-91
2021/06/01 02:16:37;;;;;;;5.43;4.90;;;8.70;99.90;;;;;;6177614;23;20435;-91
2021/06/01 02:19:08;;;;;;;5.50;5.00;;;8.60;99.90;;;;;;6178433;23;20376;-91
2021/06/01 02:21:59;;;;;;;4.53;4.13;;;8.50;99.90;;;;;;6176404;23;20406;-91
2021/06/01 02:24:34;;;;;;;4.97;4.50;;;8.40;99.90;;;;;;6175728;23;20402;-91
2021/06/01 02:27:18;;;;;;;5.23;4.73;;;8.50;99.90;;;;;;6174353;23;20427;-92
2021/06/01 02:30:05;;;;;;;4.97;4.57;;;8.50;99.90;;;;;;6176120;23;20409;-90
2021/06/01 02:32:53;;;;;;;4.70;4.30;;;8.60;99.90;;;;;;6175989;23;20410;-90
2021/06/01 02:35:41;;;;;;;5.90;4.70;;;8.40;99.90;;;;;;6176735;23;20487;-91
2021/06/01 02:38:10;;;;;;;7.10;4.93;;;8.40;99.90;;;;;;6176757;23;20395;-90
2021/06/01 02:40:38;;;;;;;4.70;4.27;;;8.50;99.90;;;;;;6176440;23;20408;-90
2021/06/01 02:43:20;;;;;;;5.27;4.87;;;8.40;99.90;;;;;;6177169;23;20445;-91
2021/06/01 02:45:47;;;;;;;6.10;5.50;;;8.30;99.90;;;;;;6175828;23;20399;-91
2021/06/01 02:48:17;;;;;;;5.07;4.27;;;8.30;99.90;;;;;;6177043;23;20466;-91
2021/06/01 02:50:43;;;;;;;5.00;4.50;;;8.60;99.90;;;;;;6177798;23;20400;-90
2021/06/01 02:53:11;;;;;;;5.03;4.20;;;8.70;99.90;;;;;;6176889;23;20386;-90
2021/06/01 02:55:37;;;;;;;5.20;4.27;;;8.60;99.90;;;;;;6176061;23;20764;-91
2021/06/01 02:58:07;;;;;;;5.10;4.70;;;8.60;99.90;;;;;;6177318;23;20724;-90
2021/06/01 03:00:35;;;;;;;5.00;4.57;;;8.60;99.90;;;;;;6177631;23;20404;-90
2021/06/01 03:03:10;;;;;;;5.27;4.77;;;8.60;99.90;;;;;;6179625;23;20392;-91
2021/06/01 03:05:35;;;;;;;5.50;5.03;;;8.70;99.90;;;;;;6181820;23;20390;-91
2021/06/01 03:08:21;;;;;;;5.77;5.20;;;8.60;99.90;;;;;;6207756;23;20401;-90
2021/06/01 03:10:47;;;;;;;4.60;4.20;;;8.30;99.90;;;;;;6182265;23;20394;-93
2021/06/01 03:13:13;;;;;;;4.73;4.33;;;8.30;99.90;;;;;;6180783;23;20488;-90
2021/06/01 03:15:38;;;;;;;4.37;4.00;;;8.30;99.90;;;;;;6181652;23;20198;-92
2021/06/01 03:18:04;;;;;;;4.70;4.30;;;8.30;99.90;;;;;;6181853;23;20239;-91
2021/06/01 03:20:30;;;;;;;4.80;4.40;;;8.30;99.90;;;;;;6181395;23;20171;-92
2021/06/01 03:23:17;;;;;;;4.77;4.37;;;8.40;99.90;;;;;;6184341;23;20169;-91
2021/06/01 03:25:43;;;;;;;5.20;4.80;;;8.40;99.90;;;;;;6181705;23;20441;-91
2021/06/01 03:28:10;;;;;;;5.60;4.53;;;8.30;99.90;;;;;;6181500;23;20394;-90
2021/06/01 03:30:36;;;;;;;5.07;4.67;;;8.30;99.90;;;;;;6181462;23;20784;-90
2021/06/01 03:33:03;;;;;;;5.20;4.80;;;8.30;99.90;;;;;;6181938;23;20394;-91
2021/06/01 03:35:41;;;;;;;5.03;4.43;;;8.20;99.90;;;;;;6181086;23;20441;-90
2021/06/01 03:38:07;;;;;;;5.83;5.23;;;8.40;99.90;;;;;;6181768;23;20474;-90
2021/06/01 03:40:34;;;;;;;5.33;4.70;;;8.40;99.90;;;;;;6181352;23;20411;-91
2021/06/01 03:43:02;;;;;;;5.60;5.10;;;8.50;99.90;;;;;;6182008;23;20401;-90
2021/06/01 03:45:28;;;;;;;4.90;4.40;;;8.50;99.90;;;;;;6181213;23;20397;-90
2021/06/01 03:47:54;;;;;;;5.43;4.90;;;8.60;99.90;;;;;;6180762;23;20391;-91
2021/06/01 03:50:22;;;;;;;5.30;4.73;;;8.50;99.90;;;;;;6177604;23;20171;-90
2021/06/01 03:53:06;;;;;;;4.77;4.37;;;8.30;99.90;;;;;;6208161;23;20383;-90
2021/06/01 03:55:32;;;;;;;4.97;4.47;;;8.20;99.90;;;;;;6180700;23;20452;-91
2021/06/01 03:57:58;;;;;;;5.43;4.87;;;8.30;99.90;;;;;;6180647;23;20729;-91
2021/06/01 04:00:28;;;;;;;5.90;5.40;;;8.50;99.90;;;;;;6180227;23;20497;-90
2021/06/01 04:02:54;;;;;;;5.00;4.60;;;8.60;99.90;;;;;;6179195;23;20170;-90
2021/06/01 04:05:20;;;;;;;4.90;4.50;;;8.70;99.90;;;;;;6180782;23;20403;-91
2021/06/01 04:07:47;;;;;;;5.43;5.03;;;8.70;99.90;;;;;;6180130;23;20866;-91
2021/06/01 04:10:15;;;;;;;5.53;4.83;;;8.80;99.90;;;;;;6180451;23;20470;-91
2021/06/01 04:12:41;;;;;;;5.00;4.60;;;8.90;99.90;;;;;;6180986;23;20402;-91
2021/06/01 04:15:08;;;;;;;5.37;4.90;;;8.90;99.90;;;;;;6179996;23;20488;-91
2021/06/01 04:17:34;;;;;;;5.33;4.83;;;8.90;99.90;;;;;;6180836;23;20485;-90
2021/06/01 04:20:00;;;;;;;7.10;6.40;;;9.00;99.90;;;;;;6180276;23;20415;-91
2021/06/01 04:22:26;;;;;;;6.13;5.57;;;9.10;99.90;;;;;;6207279;23;20396;-90
2021/06/01 04:24:52;;;;;;;8.10;7.30;;;9.20;99.90;;;;;;6208043;23;20389;-91
2021/06/01 04:27:18;;;;;;;7.20;6.50;;;9.30;99.90;;;;;;6180822;23;20162;-90
2021/06/01 04:29:43;;;;;;;6.43;5.93;;;9.30;99.90;;;;;;6181623;23;20163;-90
2021/06/01 04:32:09;;;;;;;9.70;7.50;;;9.20;99.90;;;;;;6181035;23;20153;-91
2021/06/01 04:34:43;;;;;;;7.30;6.60;;;9.20;99.90;;;;;;6180932;23;20563;-90
2021/06/01 04:37:08;;;;;;;7.77;6.60;;;9.20;99.90;;;;;;6181117;23;20607;-90
2021/06/01 04:39:34;;;;;;;7.20;6.50;;;9.20;99.90;;;;;;6181597;23;20387;-91
2021/06/01 04:42:00;;;;;;;7.83;7.10;;;9.30;99.90;;;;;;6182994;23;20171;-91
2021/06/01 04:44:25;;;;;;;7.00;6.30;;;9.40;99.90;;;;;;6180592;23;20242;-90
2021/06/01 04:46:51;;;;;;;8.40;7.60;;;9.40;99.90;;;;;;6181680;23;20160;-90
2021/06/01 04:49:17;;;;;;;7.47;6.73;;;9.40;99.90;;;;;;6181146;23;20648;-91
2021/06/01 04:51:42;;;;;;;6.37;5.83;;;9.40;99.90;;;;;;6180748;23;20230;-91
2021/06/01 04:54:08;;;;;;;7.70;6.97;;;9.50;99.90;;;;;;6183741;23;20168;-91
2021/06/01 04:56:34;;;;;;;6.37;5.87;;;9.70;99.90;;;;;;6181798;23;20282;-91
2021/06/01 04:58:59;;;;;;;6.23;5.70;;;9.90;99.90;;;;;;6181238;23;20162;-92
2021/06/01 05:01:25;;;;;;;5.77;5.27;;;10.10;99.90;;;;;;6180389;23;20169;-91
2021/06/01 05:03:52;;;;;;;5.50;4.80;;;10.20;99.90;;;;;;6176058;23;20183;-91
2021/06/01 05:06:34;;;;;;;5.37;4.87;;;10.30;99.90;;;;;;6175841;23;20163;-92
2021/06/01 05:09:01;;;;;;;6.00;5.40;;;10.50;99.90;;;;;;6177613;23;20794;-91
2021/06/01 05:11:27;;;;;;;5.03;4.63;;;10.60;99.90;;;;;;6178202;23;21069;-91
2021/06/01 05:13:53;;;;;;;6.83;5.80;;;10.70;99.90;;;;;;6177864;23;20403;-91
2021/06/01 05:16:18;;;;;;;6.03;5.53;;;10.80;99.90;;;;;;6176788;23;20220;-91
2021/06/01 05:18:44;;;;;;;6.20;5.70;;;10.90;99.90;;;;;;6175676;23;20594;-91
2021/06/01 05:21:10;;;;;;;5.83;5.33;;;11.10;99.90;;;;;;6178144;23;20983;-91
2021/06/01 05:23:36;;;;;;;6.00;5.40;;;11.20;99.90;;;;;;6176889;23;20530;-91
2021/06/01 05:26:08;;;;;;;6.50;5.90;;;11.30;99.90;;;;;;6178033;23;20266;-91
2021/06/01 05:28:36;;;;;;;6.53;5.93;;;11.50;99.90;;;;;;6179525;23;20179;-91
2021/06/01 05:33:35;;;;;;;5.80;5.30;;;11.50;99.90;;;;;;6177092;23;20478;-90
2021/06/01 05:36:01;;;;;;;6.13;5.10;;;11.60;99.90;;;;;;6177279;23;20465;-91
2021/06/01 05:38:32;;;;;;;5.47;5.07;;;11.80;99.90;;;;;;6177454;23;20395;-91
2021/06/01 05:40:59;;;;;;;5.70;5.20;;;12.00;99.90;;;;;;6177124;23;20411;-91
2021/06/01 05:43:45;;;;;;;5.80;5.37;;;12.10;99.90;;;;;;6176933;23;20395;-90
2021/06/01 05:46:10;;;;;;;7.53;5.27;;;12.20;99.90;;;;;;6176934;23;20400;-90
2021/06/01 05:48:36;;;;;;;5.53;5.13;;;12.10;99.90;;;;;;6177045;23;20794;-91
2021/06/01 05:51:03;;;;;;;5.10;4.70;;;12.20;99.90;;;;;;6177825;23;20252;-92
2021/06/01 05:53:29;;;;;;;5.47;4.97;;;12.30;99.90;;;;;;6177394;23;20388;-93
2021/06/01 05:55:55;;;;;;;5.70;5.20;;;12.30;99.90;;;;;;6176292;23;20840;-91
2021/06/01 05:58:22;;;;;;;5.50;5.00;;;12.40;99.90;;;;;;6177245;23;20466;-92
2021/06/01 06:00:48;;;;;;;9.23;5.73;;;12.50;99.90;;;;;;6177539;23;20427;-91
2021/06/01 06:03:20;;;;;;;6.10;5.67;;;12.50;99.90;;;;;;6183415;23;20464;-95
2021/06/01 06:06:27;;;;;;;5.60;5.10;;;12.70;99.90;;;;;;6210324;23;20383;-96
2021/06/01 06:09:04;;;;;;;6.53;5.67;;;12.80;99.90;;;;;;6180582;23;20458;-95
2021/06/01 06:11:30;;;;;;;5.67;5.27;;;12.90;99.90;;;;;;6139629;23;20442;-92
2021/06/01 06:16:40;;;;;;;5.40;5.00;;;13.20;99.80;;;;;;6165790;23;20484;-94
2021/06/01 06:19:06;;;;;;;5.77;5.27;;;13.30;99.90;;;;;;6149359;23;20457;-95
2021/06/01 06:21:32;;;;;;;6.20;5.60;;;13.40;99.70;;;;;;6215374;23;20913;-95
2021/06/01 06:24:05;;;;;;;5.77;5.27;;;13.50;99.70;;;;;;6227893;23;20152;-96
2021/06/01 06:26:31;;;;;;;5.77;5.20;;;13.60;99.80;;;;;;6233616;23;20411;-96
2021/06/01 06:28:57;;;;;;;5.30;4.80;;;13.70;99.60;;;;;;6228710;22;20427;-92
2021/06/01 06:31:26;;;;;;;5.83;5.40;;;13.80;99.20;;;;;;6205557;23;20218;-96
2021/06/01 06:33:55;;;;;;;5.90;5.30;;;14.00;99.40;;;;;;6195939;22;21600;-93
2021/06/01 06:36:20;;;;;;;6.27;5.67;;;14.10;99.70;;;;;;6195883;22;20451;-94
2021/06/01 06:38:52;;;;;;;6.10;5.50;;;14.10;99.20;;;;;;6213885;23;20397;-95
2021/06/01 06:49:05;;;;;;;6.47;4.73;;;14.70;98.80;;;;;;6151156;23;20387;-95
2021/06/01 07:07:13;;;;;;;5.43;4.93;;;15.70;96.40;;;;;;6146155;23;20530;-89
2021/06/01 07:09:40;;;;;;;4.93;4.53;;;15.70;96.90;;;;;;6127386;23;20489;-89
2021/06/01 07:12:07;;;;;;;5.73;5.00;;;15.80;95.70;;;;;;6148964;23;20395;-91
2021/06/01 07:14:45;;;;;;;5.27;4.87;;;15.90;96.00;;;;;;6178572;23;20727;-90
2021/06/01 07:17:11;;;;;;;7.50;5.23;;;16.00;96.20;;;;;;6152242;23;20400;-91
2021/06/01 07:19:37;;;;;;;6.00;5.40;;;16.20;96.10;;;;;;6153010;23;20398;-91
2021/06/01 07:22:03;;;;;;;5.83;5.00;;;16.30;95.50;;;;;;6152981;23;20399;-90
2021/06/01 07:24:29;;;;;;;5.10;4.60;;;16.40;95.70;;;;;;6151766;23;20244;-91
2021/06/01 07:26:54;;;;;;;7.63;5.17;;;16.50;96.00;;;;;;6177406;23;20431;-90
2021/06/01 07:29:20;;;;;;;4.97;4.47;;;16.60;95.50;;;;;;6151914;23;20161;-90
2021/06/01 07:31:49;;;;;;;5.30;4.80;;;16.90;96.80;;;;;;6151694;23;20174;-91
2021/06/01 07:34:15;;;;;;;5.10;4.60;;;17.00;96.10;;;;;;6151197;23;20164;-91
2021/06/01 07:36:41;;;;;;;8.23;4.53;;;17.00;95.00;;;;;;6152604;23;20471;-90
2021/06/01 07:39:06;;;;;;;6.13;3.97;;;17.10;95.10;;;;;;6153757;23;20399;-93
2021/06/01 07:41:59;;;;;;;3.93;3.63;;;17.20;95.10;;;;;;6152519;23;20210;-91
2021/06/01 07:44:25;;;;;;;5.07;4.57;;;17.40;93.10;;;;;;6151423;23;20160;-91
2021/06/01 07:46:51;;;;;;;4.63;4.10;;;17.60;93.70;;;;;;6155433;23;20391;-91
2021/06/01 07:49:17;;;;;;;5.43;4.43;;;17.70;93.50;;;;;;6154020;23;20395;-91
2021/06/01 07:51:43;;;;;;;4.03;3.40;;;17.80;93.10;;;;;;6152340;23;20175;-90
2021/06/01 07:54:09;;;;;;;4.23;3.27;;;17.90;91.40;;;;;;6151639;23;20862;-90
2021/06/01 07:56:37;;;;;;;2.83;2.63;;;18.00;87.30;;;;;;6152159;23;20631;-90
2021/06/01 07:59:10;;;;;;;3.40;3.10;;;18.00;82.30;;;;;;6152064;23;20157;-88
2021/06/01 08:01:36;;;;;;;3.30;3.00;;;18.00;81.50;;;;;;6151752;23;20734;-89
2021/06/01 08:04:01;;;;;;;3.67;3.37;;;18.00;80.40;;;;;;6178506;23;20475;-90
2021/06/01 08:06:30;;;;;;;4.10;3.27;;;18.10;84.10;;;;;;6156916;23;20179;-90
2021/06/01 08:09:08;;;;;;;3.47;3.23;;;18.30;78.10;;;;;;6180870;23;20493;-90
2021/06/01 08:11:35;;;;;;;3.20;3.00;;;18.50;79.70;;;;;;6181924;23;20442;-90
2021/06/01 08:14:00;;;;;;;4.00;3.40;;;18.70;80.30;;;;;;6181522;23;20395;-90
2021/06/01 08:16:26;;;;;;;4.30;3.47;;;18.70;77.20;;;;;;6184144;23;20517;-90
2021/06/01 08:19:30;;;;;;;3.83;3.47;;;18.80;75.00;;;;;;6181350;23;20167;-91
2021/06/01 08:24:19;;;;;;;3.50;3.20;;;19.00;70.20;;;;;;6206175;23;20598;-89
2021/06/01 08:26:50;;;;;;;3.43;3.23;;;18.90;68.20;;;;;;6209479;23;20398;-90
2021/06/01 08:29:17;;;;;;;3.30;3.00;;;19.00;69.60;;;;;;6182494;23;20390;-90
2021/06/01 08:31:44;;;;;;;3.20;3.00;;;18.90;69.90;;;;;;6181926;23;20495;-90
2021/06/01 08:34:09;;;;;;;3.30;3.00;;;19.10;70.80;;;;;;6181747;23;20413;-90
2021/06/01 08:36:36;;;;;;;3.30;3.00;;;19.30;70.80;;;;;;6185545;23;20521;-90
2021/06/01 08:39:05;;;;;;;2.80;2.60;;;19.40;69.80;;;;;;6184221;23;20398;-90
2021/06/01 08:41:31;;;;;;;3.73;2.97;;;19.40;65.50;;;;;;6188089;23;20402;-90
2021/06/01 08:44:03;;;;;;;3.47;3.27;;;19.50;66.80;;;;;;6186465;23;20393;-91
2021/06/01 08:46:42;;;;;;;5.17;3.00;;;19.50;63.30;;;;;;6189088;23;20398;-89
2021/06/01 08:49:13;;;;;;;3.17;2.97;;;19.30;65.40;;;;;;6211956;23;20780;-91
2021/06/01 08:51:38;;;;;;;3.43;3.13;;;19.30;64.10;;;;;;6186665;23;20956;-90
2021/06/01 08:54:04;;;;;;;4.07;2.90;;;19.60;64.50;;;;;;6212198;23;20402;-91
2021/06/01 08:56:31;;;;;;;3.67;3.37;;;19.60;64.40;;;;;;6185605;23;20191;-91
2021/06/01 08:58:57;;;;;;;3.70;3.17;;;19.70;59.60;;;;;;6186210;23;20246;-90
2021/06/01 09:01:22;;;;;;;4.17;3.20;;;19.80;58.30;;;;;;6185797;23;20931;-91
2021/06/01 09:03:53;;;;;;;5.57;3.10;;;19.90;66.30;;;;;;6186688;23;20167;-90
2021/06/01 09:06:35;;;;;;;18.83;5.20;;;20.00;64.70;;;;;;6187621;23;20464;-90
2021/06/01 09:23:05;;;;;;;4.00;2.93;;;20.20;57.50;;;;;;6213215;23;20464;-90
2021/06/01 09:25:46;;;;;;;4.50;3.53;;;20.60;66.50;;;;;;6188511;23;20395;-90
2021/06/01 09:28:14;;;;;;;3.60;3.30;;;20.70;61.50;;;;;;6215752;23;20389;-90
2021/06/01 09:31:01;;;;;;;3.90;3.00;;;20.80;60.90;;;;;;6182503;23;20401;-90
2021/06/01 09:33:32;;;;;;;3.67;2.70;;;20.90;58.50;;;;;;6184095;23;20402;-92
2021/06/01 09:36:06;;;;;;;3.00;2.80;;;20.90;57.90;;;;;;6182771;23;20446;-90
2021/06/01 09:38:42;;;;;;;3.13;2.93;;;20.90;58.10;;;;;;6183509;23;20401;-91
2021/06/01 09:41:16;;;;;;;2.70;2.47;;;20.60;58.40;;;;;;6183795;23;20405;-91
2021/06/01 09:43:56;;;;;;;4.03;2.93;;;20.80;57.80;;;;;;6182524;23;20968;-90
2021/06/01 09:46:35;;;;;;;3.80;3.40;;;20.70;57.80;;;;;;6182156;23;20734;-91
2021/06/01 09:49:13;;;;;;;3.37;3.10;;;21.00;58.20;;;;;;6182848;23;20401;-91
2021/06/01 09:51:58;;;;;;;3.50;3.20;;;21.10;52.80;;;;;;6183151;23;20464;-90
2021/06/01 09:54:47;;;;;;;3.27;3.07;;;21.10;55.80;;;;;;6182117;23;20395;-91
2021/06/01 09:57:21;;;;;;;3.13;2.83;;;21.30;57.30;;;;;;6182888;23;20477;-90
2021/06/01 10:00:13;;;;;;;3.50;3.20;;;21.10;55.60;;;;;;6182393;23;20728;-92
2021/06/01 10:02:39;;;;;;;2.97;2.77;;;21.30;51.40;;;;;;6182560;23;20402;-91
2021/06/01 10:05:19;;;;;;;3.43;2.60;;;21.50;56.60;;;;;;6182745;23;20397;-89
2021/06/01 10:07:47;;;;;;;2.73;2.53;;;21.40;53.80;;;;;;6182601;23;20476;-91
2021/06/01 10:10:22;;;;;;;3.20;2.43;;;21.60;55.40;;;;;;6182241;23;20391;-90
2021/06/01 10:12:57;;;;;;;3.47;2.43;;;21.80;53.20;;;;;;6183632;23;20723;-90
2021/06/01 10:15:25;;;;;;;3.10;2.83;;;21.60;53.70;;;;;;6181892;23;20430;-90
2021/06/01 10:17:51;;;;;;;3.20;3.00;;;21.70;55.30;;;;;;6207226;23;20406;-91
2021/06/01 10:20:24;;;;;;;3.63;3.33;;;21.50;54.00;;;;;;6182420;23;20379;-90
2021/06/01 10:22:51;;;;;;;4.90;2.73;;;21.40;54.20;;;;;;6181878;23;20407;-90
2021/06/01 10:25:18;;;;;;;4.20;2.53;;;21.60;56.00;;;;;;6182282;23;20467;-91
2021/06/01 10:27:45;;;;;;;3.40;3.10;;;21.80;54.60;;;;;;6183079;23;20469;-92
2021/06/01 10:30:15;;;;;;;3.17;2.93;;;22.00;52.20;;;;;;6182028;23;20437;-91
2021/06/01 10:32:46;;;;;;;2.60;2.40;;;21.90;51.80;;;;;;6208075;23;20767;-90
2021/06/01 10:35:16;;;;;;;6.10;2.90;;;21.70;52.30;;;;;;6181657;23;20534;-92
2021/06/01 10:52:04;;;;;;;5.17;3.17;;;22.30;46.90;;;;;;6162074;23;20371;-90
2021/06/01 10:54:52;;;;;;;3.77;3.00;;;22.50;51.00;;;;;;6181768;23;20422;-93
2021/06/01 10:57:19;;;;;;;4.23;3.33;;;22.80;51.60;;;;;;6185132;23;20546;-92
2021/06/01 11:02:25;;;;;;;4.57;2.60;;;23.10;56.40;;;;;;6208891;23;20536;-92
2021/06/01 11:05:07;;;;;;;2.87;2.43;;;23.50;50.40;;;;;;6181627;23;20403;-90
2021/06/01 11:07:52;;;;;;;5.87;3.40;;;23.00;44.00;;;;;;6181605;23;20939;-92
2021/06/01 11:10:38;;;;;;;3.07;2.87;;;22.70;51.10;;;;;;6182217;23;20391;-91
2021/06/01 11:13:12;;;;;;;2.80;2.70;;;22.80;51.50;;;;;;6182028;23;20548;-91
2021/06/01 11:15:40;;;;;;;3.57;3.27;;;23.20;47.10;;;;;;6181094;23;20438;-90
2021/06/01 11:18:38;;;;;;;3.23;3.03;;;22.90;44.90;;;;;;6181450;23;20727;-92
2021/06/01 11:21:16;;;;;;;3.50;3.30;;;22.60;49.30;;;;;;6181446;23;20732;-92
2021/06/01 11:35:30;;;;;;;3.40;3.20;;;23.00;45.70;;;;;;6207157;23;20881;-92
2021/06/01 11:43:35;;;;;;;7.30;4.00;;;23.90;52.80;;;;;;6207475;23;20453;-92
2021/06/01 11:51:14;;;;;;;3.70;3.30;;;24.40;51.50;;;;;;6204776;23;20382;-92
2021/06/01 11:54:03;;;;;;;3.70;3.40;;;24.40;51.00;;;;;;6179066;23;20402;-93
2021/06/01 11:57:16;;;;;;;4.23;3.83;;;24.40;52.70;;;;;;6180317;23;20816;-91
2021/06/01 12:11:11;;;;;;;3.80;3.50;;;24.40;51.80;;;;;;6207897;23;20457;-92
2021/06/01 12:19:22;;;;;;;4.30;3.50;;;24.00;48.70;;;;;;6085982;23;20391;-94
2021/06/01 12:21:50;;;;;;;3.70;3.43;;;24.50;54.00;;;;;;6132895;23;20391;-95
2021/06/01 12:24:25;;;;;;;4.10;3.80;;;24.80;49.50;;;;;;6182120;23;20390;-95
2021/06/01 12:32:35;;;;;;;3.63;3.40;;;25.00;50.60;;;;;;6206377;23;20529;-93
2021/06/01 12:36:48;;;;;;;3.73;3.43;;;25.30;51.10;;;;;;6182536;23;20826;-95
2021/06/01 12:41:43;;;;;;;3.60;3.33;;;24.80;49.00;;;;;;6203815;23;20916;-94
2021/06/01 12:44:09;;;;;;;3.60;3.40;;;25.00;47.70;;;;;;6179177;23;20398;-95
2021/06/01 13:20:59;;;;;;;3.33;3.13;;;26.40;44.20;;;;;;6211454;23;20382;-91
2021/06/01 13:39:55;;;;;;;3.13;2.90;;;31.60;36.30;;;;;;6208623;23;20397;-92
2021/06/01 13:56:13;;;;;;;2.90;2.70;;;37.90;25.00;;;;;;6207770;23;20548;-90
2021/06/01 13:58:43;;;;;;;2.50;2.30;;;38.30;24.00;;;;;;6207321;23;20393;-91
2021/06/01 14:02:09;;;;;;;2.80;2.60;;;36.80;24.20;;;;;;6181098;23;20725;-91
2021/06/01 14:37:03;;;;;;;2.97;2.77;;;40.70;18.50;;;;;;6207864;23;20197;-90
2021/06/01 15:29:56;;;;;;;2.40;2.30;;;38.70;20.10;;;;;;6207950;23;20497;-93
2021/06/01 16:14:31;;;;;;;2.57;2.40;;;37.90;23.00;;;;;;6175611;23;20767;-91
2021/06/01 16:31:23;;;;;;;5.17;2.77;;;36.60;23.20;;;;;;6176352;23;20406;-91
2021/06/01 17:12:48;;;;;;;3.00;2.80;;;33.60;25.20;;;;;;6209204;23;20429;-90
2021/06/01 17:15:18;;;;;;;2.90;2.53;;;33.30;25.50;;;;;;6182443;23;20960;-90
2021/06/01 17:17:51;;;;;;;2.77;2.57;;;33.20;25.60;;;;;;6209614;23;20470;-90
2021/06/01 17:21:00;;;;;;;3.13;2.80;;;33.10;26.10;;;;;;6182120;23;20394;-91
2021/06/01 17:31:53;;;;;;;3.30;3.00;;;33.60;25.30;;;;;;6208437;23;20895;-90
2021/06/01 17:37:09;;;;;;;2.87;2.53;;;34.00;24.70;;;;;;6208992;23;20770;-91
2021/06/01 17:39:36;;;;;;;2.73;2.53;;;34.30;25.20;;;;;;6208462;23;20418;-90
2021/06/01 17:42:02;;;;;;;2.80;2.37;;;34.40;24.20;;;;;;6181585;23;20441;-90
2021/06/01 17:44:30;;;;;;;3.00;2.70;;;33.70;24.80;;;;;;6181249;23;20477;-90
2021/06/01 17:47:02;;;;;;;3.33;2.67;;;34.10;25.80;;;;;;6206085;23;20402;-91
2021/06/01 17:49:35;;;;;;;2.67;2.43;;;34.10;25.30;;;;;;6177649;23;20395;-90
2021/06/01 17:52:03;;;;;;;2.63;2.47;;;33.90;25.50;;;;;;6178925;23;20410;-90
2021/06/01 17:54:31;;;;;;;3.20;2.73;;;32.80;25.80;;;;;;6175148;23;20437;-90
2021/06/01 17:57:02;;;;;;;3.17;2.97;;;32.70;26.00;;;;;;6177466;23;20442;-90
2021/06/01 17:59:28;;;;;;;3.40;3.10;;;32.60;26.70;;;;;;6194797;23;20399;-90
2021/06/01 18:01:56;;;;;;;3.23;2.93;;;31.60;27.80;;;;;;6177650;23;20699;-90
2021/06/01 18:04:32;;;;;;;2.90;2.70;;;31.20;26.90;;;;;;6203487;23;20383;-90
2021/06/01 18:07:12;;;;;;;2.73;2.53;;;30.20;28.00;;;;;;6209516;23;20387;-89
2021/06/01 19:28:22;;;;;;;3.47;3.17;;;18.40;52.30;;;;;;6176395;23;20399;-89
2021/06/01 19:50:19;;;;;;;3.40;3.03;;;17.40;58.30;;;;;;6204266;23;20906;-89
2021/06/01 19:52:48;;;;;;;3.40;3.10;;;17.30;59.40;;;;;;6202894;23;20468;-89
2021/06/01 19:55:19;;;;;;;4.60;4.10;;;17.10;62.90;;;;;;6202254;23;20666;-89
2021/06/01 19:57:48;;;;;;;3.60;3.30;;;17.00;64.40;;;;;;6201592;23;20451;-88
2021/06/01 20:00:21;;;;;;;4.07;3.67;;;16.90;66.50;;;;;;6177247;23;20496;-89
2021/06/01 20:02:49;;;;;;;3.50;3.20;;;16.80;65.90;;;;;;6202912;23;20498;-89
2021/06/01 20:05:17;;;;;;;3.60;3.30;;;17.00;65.00;;;;;;6148922;23;20486;-89
2021/06/01 20:07:46;;;;;;;4.50;3.53;;;17.00;65.30;;;;;;6199554;23;20375;-89
2021/06/01 20:10:33;;;;;;;5.17;3.70;;;16.90;68.30;;;;;;6200260;23;20415;-89
2021/06/01 20:13:00;;;;;;;5.30;3.20;;;16.90;67.30;;;;;;6176687;23;20569;-89
2021/06/01 20:15:35;;;;;;;4.47;3.73;;;17.00;65.00;;;;;;6175808;23;20555;-88
2021/06/01 20:18:08;;;;;;;6.60;3.60;;;17.00;63.30;;;;;;6176618;23;20173;-89
2021/06/01 20:20:38;;;;;;;3.77;3.47;;;17.10;64.60;;;;;;6170402;23;20465;-89
2021/06/01 20:23:15;;;;;;;3.77;3.47;;;17.00;65.00;;;;;;6201393;23;20469;-88
2021/06/01 20:25:50;;;;;;;3.90;3.60;;;16.90;67.40;;;;;;6203711;23;20406;-89
2021/06/01 20:28:39;;;;;;;4.50;3.80;;;16.70;70.20;;;;;;6151653;23;20386;-89
2021/06/01 20:34:02;;;;;;;5.07;3.53;;;16.50;73.40;;;;;;6202738;23;20375;-88
2021/06/01 20:36:30;;;;;;;4.17;3.57;;;16.40;76.20;;;;;;6176655;23;20508;-89
2021/06/01 20:39:04;;;;;;;5.13;3.17;;;16.30;77.60;;;;;;6176480;23;20493;-89
2021/06/01 20:41:33;;;;;;;3.97;3.67;;;16.20;77.50;;;;;;6176668;23;20430;-88
2021/06/01 20:44:01;;;;;;;3.63;3.33;;;16.20;78.40;;;;;;6202848;23;20379;-89
2021/06/01 20:46:35;;;;;;;4.00;3.60;;;16.20;79.80;;;;;;6150418;23;20431;-88
2021/06/01 20:49:07;;;;;;;4.67;3.70;;;15.90;84.40;;;;;;6178446;23;20402;-88
2021/06/01 20:51:38;;;;;;;4.03;3.70;;;15.70;86.60;;;;;;6151336;23;20772;-89
2021/06/01 20:54:04;;;;;;;3.37;3.07;;;15.60;89.40;;;;;;6201870;23;20391;-91
2021/06/01 20:56:32;;;;;;;4.47;3.10;;;15.60;90.80;;;;;;6176401;23;20956;-89
2021/06/01 20:59:13;;;;;;;3.93;3.33;;;15.50;92.60;;;;;;6152468;23;20438;-89